Flight Track Log - Related Links

Times and Time Zones

All times are in EDT time to prevent confusion due to time zone crossing. See the HL-7611 flight status page for this flight to view local times or setup timezone preferences in your user account.

Time Position Orientation Groundspeed Altitude Reporting Facility
EDT Latitude Longitude Course Direction KTS MPH feet Rate Location/Type
Mon 01:08:09 PM 22.2980 113.9040 78° East 92 106  Level FlightAware ADS-B
Mon 01:08:53 PM 22.3080 113.9340 70° East 158 182 700 1,125 Climbing FlightAware ADS-B
Mon 01:09:29 PM 22.3180 113.9650 71° East 198 228 1,500 2,049 Climbing FlightAware ADS-B
Mon 01:10:15 PM 22.3320 114.0110 72° East 223 257 3,500 2,838 Climbing FlightAware ADS-B
Mon 01:10:43 PM 22.3410 114.0420 73° East 232 267 5,000 2,897 Climbing FlightAware ADS-B
Mon 01:11:13 PM 22.3250 114.0710 121° Southeast 249 287 6,300 1,929 Climbing FlightAware ADS-B
Mon 01:11:39 PM 22.3100 114.0750 166° South 255 293 6,800 1,966 Climbing FlightAware ADS-B
Mon 01:12:11 PM 22.2530 114.0780 177° South 297 342 8,200 2,400 Climbing FlightAware ADS-B
Mon 01:12:49 PM 22.2180 114.0810 175° South 298 343 9,600 2,051 Climbing FlightAware ADS-B
Mon 01:13:30 PM 22.1690 114.0910 169° South 318 366 10,900 1,792 Climbing FlightAware ADS-B
Mon 01:14:06 PM 22.1230 114.1660 123° Southeast 384 442 11,900 1,594 Climbing FlightAware ADS-B
Mon 01:14:34 PM 22.1180 114.1760 118° Southeast 387 445 12,600 525 Climbing FlightAware ADS-B
Mon 01:15:26 PM 22.0830 114.2530 116° Southeast 387 445 12,600  Level FlightAware ADS-B
Mon 01:15:50 PM 22.0670 114.2880 116° Southeast 387 445 12,600  Level FlightAware ADS-B
Mon 01:16:27 PM 22.0430 114.3430 115° Southeast 387 445 12,600 1,493 Level FlightAware ADS-B
Mon 01:19:00 PM 22.2840 114.5021 31° Northeast  Level Estimated
Mon 01:20:00 PM 22.3784 114.5646 31° Northeast  Level Estimated
Mon 01:20:05 PM 21.8120 114.8310 31° Northeast 21,800  Level FlightAware ADS-B
Mon 01:23:00 PM 22.0914 115.0058 30° Northeast  Level Estimated
Mon 01:24:00 PM 22.1872 115.0658 30° Northeast  Level Estimated
Mon 01:25:00 PM 22.2829 115.1260 30° Northeast  Level Estimated
Mon 01:26:00 PM 22.3786 115.1862 30° Northeast  Level Estimated
Mon 01:27:00 PM 22.4743 115.2466 30° Northeast  Level Estimated
Mon 01:28:00 PM 22.5700 115.3070 30° Northeast  Level Estimated
Mon 01:29:00 PM 22.6656 115.3675 30° Northeast  Level Estimated
Mon 01:30:00 PM 22.7613 115.4281 30° Northeast  Level Estimated
Mon 01:31:00 PM 22.8569 115.4887 30° Northeast  Level Estimated
Mon 01:32:00 PM 22.9525 115.5495 30° Northeast  Level Estimated
Mon 01:33:00 PM 23.0480 115.6103 30° Northeast  Level Estimated
Mon 01:33:31 PM 21.9540 116.9130 30° Northeast 501 577 39,000  Level FlightAware ADS-B
Mon 01:34:00 PM 23.1436 115.6712 30° Northeast  Level Estimated
Mon 01:34:09 PM 21.9600 116.9930 85° East 501 577 39,000  Level FlightAware ADS-B
Mon 01:34:35 PM 21.9640 117.0730 87° East 502 578 39,000  Level FlightAware ADS-B
Mon 01:35:25 PM 21.9710 117.1790 86° East 502 578 39,000  Level FlightAware ADS-B
Mon 01:36:24 PM 21.9820 117.3460 86° East 505 581 39,000 92 Level FlightAware ADS-B
Mon 01:37:36 PM 22.0210 117.5230 77° East 509 586 39,200 486 Climbing FlightAware ADS-B
Mon 01:38:15 PM 22.0580 117.6140 66° East 508 585 39,900 960 Climbing FlightAware ADS-B
Mon 01:38:51 PM 22.1020 117.6930 59° Northeast 509 586 40,400 844 Climbing FlightAware ADS-B
Mon 01:39:19 PM 22.1360 117.7550 59° Northeast 509 586 40,800 391 Climbing FlightAware ADS-B
Mon 01:40:23 PM 22.2140 117.8920 58° Northeast 508 585 41,000 118 Climbing FlightAware ADS-B
Mon 01:41:01 PM 22.2600 117.9740 59° Northeast 507 583 41,000  Level FlightAware ADS-B
Mon 01:41:37 PM 22.3040 118.0520 59° Northeast 505 581 41,000  Level FlightAware ADS-B
Mon 01:42:17 PM 22.3540 118.1370 58° Northeast 505 581 41,000  Level FlightAware ADS-B
Mon 01:43:23 PM 22.4380 118.2770 57° Northeast 504 580 41,000  Level FlightAware ADS-B
Mon 01:43:55 PM 22.4940 118.3300 41° Northeast 502 578 41,000  Level FlightAware ADS-B
Mon 01:44:27 PM 22.5510 118.3810 40° Northeast 502 578 41,000  Level FlightAware ADS-B
Mon 01:45:01 PM 22.6110 118.4370 41° Northeast 502 578 41,000  Level FlightAware ADS-B
Mon 01:45:50 PM 22.6970 118.5150 40° Northeast 504 580 41,000  Level FlightAware ADS-B
Mon 01:46:23 PM 22.7570 118.5710 41° Northeast 505 581 41,000  Level FlightAware ADS-B
Mon 01:47:19 PM 22.8570 118.6620 40° Northeast 507 583 41,000  Level FlightAware ADS-B
Mon 01:47:45 PM 22.9040 118.7050 40° Northeast 507 583 41,000  Level FlightAware ADS-B
Mon 01:48:49 PM 23.0190 118.8110 40° Northeast 510 587 41,000  Level FlightAware ADS-B
Mon 01:49:21 PM 23.0750 118.8630 41° Northeast 510 587 41,000  Level FlightAware ADS-B
Mon 01:50:03 PM 23.1510 118.9340 41° Northeast 509 586 41,000  Level FlightAware ADS-B
Mon 01:50:43 PM 23.2210 118.9990 40° Northeast 510 587 41,000  Level FlightAware ADS-B
Mon 01:51:43 PM 23.3310 119.1010 40° Northeast 512 589 41,000  Level FlightAware ADS-B
Mon 01:52:15 PM 23.3870 119.1530 40° Northeast 513 590 41,000  Level FlightAware ADS-B
Mon 01:52:46 PM 23.4440 119.2060 40° Northeast 514 592 41,000  Level FlightAware ADS-B
Mon 01:53:15 PM 23.4980 119.2550 40° Northeast 515 593 41,000  Level FlightAware ADS-B
Mon 01:53:49 PM 23.5580 119.3120 41° Northeast 516 594 41,000  Level FlightAware ADS-B
Mon 01:54:27 PM 23.6080 119.3590 41° Northeast 518 596 41,000  Level FlightAware ADS-B
Mon 01:55:03 PM 23.6740 119.4210 41° Northeast 518 596 41,000  Level FlightAware ADS-B
Mon 01:55:39 PM 23.7410 119.4830 40° Northeast 516 594 41,000  Level FlightAware ADS-B
Mon 01:56:19 PM 23.8150 119.5530 41° Northeast 516 594 41,000  Level FlightAware ADS-B
Mon 01:56:50 PM 23.8710 119.6050 40° Northeast 516 594 41,000  Level FlightAware ADS-B
Mon 01:57:20 PM 23.9180 119.6490 41° Northeast 516 594 41,000  Level FlightAware ADS-B
Mon 01:57:54 PM 24.0020 119.7280 41° Northeast 517 595 41,000  Level FlightAware ADS-B
Mon 01:59:04 PM 24.1300 119.8490 41° Northeast 518 596 41,000  Level FlightAware ADS-B
Mon 01:59:35 PM 24.1870 119.9030 41° Northeast 520 598 41,000  Level FlightAware ADS-B
Mon 02:00:30 PM 24.2830 119.9940 41° Northeast 520 598 41,000  Level FlightAware ADS-B
Mon 02:01:14 PM 24.3660 120.0720 41° Northeast 520 598 41,000  Level FlightAware ADS-B
Mon 02:01:35 PM 24.4060 120.1100 41° Northeast 519 597 41,000  Level FlightAware ADS-B
Mon 02:02:31 PM 24.4940 120.1940 41° Northeast 520 598 41,000  Level FlightAware ADS-B
Mon 02:03:08 PM 24.5510 120.2490 41° Northeast 520 598 41,000  Level FlightAware ADS-B
Mon 02:03:45 PM 24.6080 120.3030 41° Northeast 520 598 41,000  Level FlightAware ADS-B
Mon 02:04:27 PM 24.7200 120.4100 41° Northeast 524 603 41,000  Level FlightAware ADS-B
Mon 02:05:11 PM 24.8010 120.4870 41° Northeast 523 602 41,000  Level FlightAware ADS-B
Mon 02:05:45 PM 24.8620 120.5460 41° Northeast 523 602 41,000  Level FlightAware ADS-B
Mon 02:06:21 PM 24.9270 120.6080 41° Northeast 524 603 41,000  Level FlightAware ADS-B
Mon 02:07:26 PM 25.0460 120.7230 41° Northeast 526 605 41,000  Level FlightAware ADS-B
Mon 02:08:13 PM 25.1330 120.8060 41° Northeast 527 606 41,000  Level FlightAware ADS-B
Mon 02:09:11 PM 25.2390 120.9090 41° Northeast 528 608 41,000  Level FlightAware ADS-B
Mon 02:09:45 PM 25.3030 120.9710 41° Northeast 530 610 41,000  Level FlightAware ADS-B
Mon 02:10:48 PM 25.4180 121.0830 41° Northeast 531 611 41,000  Level FlightAware ADS-B
Mon 02:11:37 PM 25.5010 121.1640 41° Northeast 529 609 41,000  Level FlightAware ADS-B
Mon 02:12:12 PM 25.5730 121.2340 41° Northeast 529 609 41,000  Level FlightAware ADS-B
Mon 02:12:46 PM 25.6350 121.2940 41° Northeast 528 608 41,000  Level FlightAware ADS-B
Mon 02:13:14 PM 25.6860 121.3440 41° Northeast 527 606 41,000  Level FlightAware ADS-B
Mon 02:13:54 PM 25.7600 121.4160 41° Northeast 529 609 41,000  Level FlightAware ADS-B
Mon 02:14:34 PM 25.8330 121.4880 42° Northeast 531 611 41,000  Level FlightAware ADS-B
Mon 02:15:03 PM 25.8840 121.5390 42° Northeast 529 609 41,000  Level FlightAware ADS-B
Mon 02:15:39 PM 25.9390 121.5910 40° Northeast 529 609 41,000  Level FlightAware ADS-B
Mon 02:16:11 PM 26.0040 121.6560 42° Northeast 531 611 41,000  Level FlightAware ADS-B
Mon 02:16:41 PM 26.0630 121.7140 41° Northeast 533 613 41,000  Level FlightAware ADS-B
Mon 02:17:44 PM 26.1620 121.8110 41° Northeast 533 613 41,000  Level FlightAware ADS-B
Mon 02:18:13 PM 26.2360 121.8860 42° Northeast 532 612 41,000  Level FlightAware ADS-B
Mon 02:19:15 PM 26.3340 121.9810 41° Northeast 532 612 41,000  Level FlightAware ADS-B
Mon 02:19:52 PM 26.3930 122.0370 40° Northeast 532 612 41,000  Level FlightAware ADS-B
Mon 02:20:26 PM 26.4460 122.0900 42° Northeast 532 612 41,000  Level FlightAware ADS-B
Mon 02:21:02 PM 26.5030 122.1450 41° Northeast 532 612 41,000  Level FlightAware ADS-B
Mon 02:21:39 PM 26.5620 122.2020 41° Northeast 532 612 41,000  Level FlightAware ADS-B
Mon 02:22:15 PM 26.6180 122.2570 41° Northeast 532 612 41,000  Level FlightAware ADS-B
Mon 02:22:51 PM 26.6750 122.3120 41° Northeast 532 612 41,000  Level FlightAware ADS-B
Mon 02:23:15 PM 26.7130 122.3490 41° Northeast 532 612 41,000  Level FlightAware ADS-B
Mon 02:24:16 PM 26.8090 122.4430 41° Northeast 532 612 41,000  Level FlightAware ADS-B
Mon 02:24:41 PM 26.8490 122.4810 40° Northeast 532 612 41,000  Level FlightAware ADS-B
Mon 02:25:53 PM 26.9630 122.5920 41° Northeast 532 612 41,000  Level FlightAware ADS-B
Mon 02:26:53 PM 27.0570 122.6840 41° Northeast 532 612 41,000  Level FlightAware ADS-B
Mon 02:27:42 PM 27.1350 122.7600 41° Northeast 532 612 41,000  Level FlightAware ADS-B
Mon 02:28:06 PM 27.1720 122.7970 42° Northeast 532 612 41,000  Level FlightAware ADS-B
Mon 02:31:00 PM 27.5028 122.9021 16° North  Level Estimated
Mon 02:32:00 PM 27.6168 122.9385 16° North  Level Estimated
Mon 02:33:00 PM 27.7309 122.9749 16° North  Level Estimated
Mon 02:34:00 PM 27.8449 123.0115 16° North  Level Estimated
Mon 02:35:00 PM 27.9589 123.0481 16° North  Level Estimated
Mon 02:36:00 PM 28.0729 123.0848 16° North  Level Estimated
Mon 02:37:00 PM 28.1869 123.1215 16° North  Level Estimated
Mon 02:38:00 PM 28.3008 123.1584 16° North  Level Estimated
Mon 02:39:00 PM 28.4148 123.1953 16° North  Level Estimated
Mon 02:40:00 PM 28.5288 123.2323 16° North  Level Estimated
Mon 02:41:00 PM 28.6427 123.2694 16° North  Level Estimated
Mon 02:42:00 PM 28.7567 123.3066 16° North  Level Estimated
Mon 02:43:00 PM 28.8706 123.3438 16° North  Level Estimated
Mon 02:44:00 PM 28.9845 123.3812 16° North  Level Estimated
Mon 02:45:00 PM 29.0984 123.4186 16° North  Level Estimated
Mon 02:46:00 PM 29.2123 123.4561 16° North  Level Estimated
Mon 02:47:00 PM 29.3262 123.4937 16° North  Level Estimated
Mon 02:48:00 PM 29.4401 123.5313 16° North  Level Estimated
Mon 02:49:00 PM 29.5540 123.5691 16° North  Level Estimated
Mon 02:50:00 PM 29.6678 123.6069 16° North  Level Estimated
Mon 02:51:00 PM 29.7817 123.6448 16° North  Level Estimated
Mon 02:52:00 PM 29.8955 123.6828 16° North  Level Estimated
Mon 02:53:00 PM 30.0093 123.7209 16° North  Level Estimated
Mon 02:54:00 PM 30.1232 123.7591 16° North  Level Estimated
Mon 02:55:00 PM 30.2370 123.7974 16° North  Level Estimated
Mon 02:56:00 PM 30.3508 123.8357 16° North  Level Estimated
Mon 02:57:00 PM 30.4646 123.8742 16° North  Level Estimated
Mon 02:58:00 PM 30.5783 123.9127 16° North  Level Estimated
Mon 02:59:00 PM 30.6921 123.9513 16° North  Level Estimated
Mon 03:00:00 PM 30.8058 123.9900 16° North  Level Estimated
Mon 03:01:00 PM 30.9196 124.0288 16° North  Level Estimated
Mon 03:02:00 PM 31.0333 124.0677 16° North  Level Estimated
Mon 03:03:00 PM 31.1470 124.1067 16° North  Level Estimated
Mon 03:04:00 PM 31.2607 124.1458 16° North  Level Estimated
Mon 03:05:00 PM 31.3744 124.1850 16° North  Level Estimated
Mon 03:06:00 PM 31.4881 124.2243 16° North  Level Estimated
Mon 03:07:00 PM 31.6017 124.2637 16° North  Level Estimated
Mon 03:08:00 PM 31.7154 124.3031 16° North  Level Estimated
Mon 03:09:00 PM 31.8290 124.3427 16° North  Level Estimated
Mon 03:10:00 PM 31.9427 124.3823 16° North  Level Estimated
Mon 03:11:00 PM 32.0563 124.4221 17° North  Level Estimated
Mon 03:12:00 PM 32.1699 124.4620 17° North  Level Estimated
Mon 03:12:39 PM 33.1000 126.5020 17° North 513 590 41,000  Level FlightAware ADS-B
Mon 03:13:00 PM 32.2835 124.5019 17° North  Level Estimated
Mon 03:13:28 PM 33.1930 126.5420 20° North 513 590 41,000  Level FlightAware ADS-B
Mon 03:14:04 PM 33.2610 126.5720 20° North 513 590 41,000  Level FlightAware ADS-B
Mon 03:15:16 PM 33.3980 126.6310 20° North 513 590 41,000  Level FlightAware ADS-B
Mon 03:15:41 PM 33.4450 126.6520 20° North 513 590 41,000  Level FlightAware ADS-B
Mon 03:16:19 PM 33.5990 126.7010 15° North 507 583 41,000  Level FlightAware ADS-B
Mon 03:16:56 PM 33.6720 126.7150 North 507 583 41,000  Level FlightAware ADS-B
Mon 03:17:32 PM 33.7430 126.7280 North 507 583 41,000  Level FlightAware ADS-B
Mon 03:18:02 PM 33.8370 126.7280 360° North 498 573 41,000  Level FlightAware ADS-B
Mon 03:18:22 PM 33.8830 126.7330 North 498 573 41,000  Level FlightAware ADS-B
Mon 03:19:12 PM 33.9800 126.7430 North 498 573 41,000  Level FlightAware ADS-B
Mon 03:20:00 PM 34.0740 126.7530 North 498 573 41,000  Level FlightAware ADS-B
Mon 03:20:36 PM 34.1440 126.7610 North 498 573 41,000  Level FlightAware ADS-B
Mon 03:21:12 PM 34.2140 126.7680 North 498 573 41,000  Level FlightAware ADS-B
Mon 03:21:48 PM 34.2850 126.7750 North 498 573 41,000  Level FlightAware ADS-B
Mon 03:22:49 PM 34.4040 126.7880 North 498 573 41,000  Level FlightAware ADS-B
Mon 03:23:25 PM 34.4740 126.7950 North 498 573 41,000  Level FlightAware ADS-B
Mon 03:24:02 PM 34.5460 126.8030 North 498 573 41,000  Level FlightAware ADS-B
Mon 03:24:27 PM 34.5950 126.8080 North 498 573 41,000  Level FlightAware ADS-B
Mon 03:25:03 PM 34.6650 126.8160 North 498 573 41,000  Level FlightAware ADS-B
Mon 03:25:27 PM 34.7120 126.8210 North 498 573 41,000  Level FlightAware ADS-B
Mon 03:26:03 PM 34.7820 126.8280 North 498 573 41,000  Level FlightAware ADS-B
Mon 03:26:49 PM 34.8720 126.8380 North 498 573 41,000  Level FlightAware ADS-B
Mon 03:27:13 PM 34.9190 126.8430 North 498 573 41,000  Level FlightAware ADS-B
Mon 03:27:49 PM 34.9890 126.8500 North 498 573 41,000  Level FlightAware ADS-B
Mon 03:28:11 PM 35.0320 126.8550 North 498 573 41,000 -2,049 Level FlightAware ADS-B
Mon 03:31:00 PM 35.3629 126.8015 352° North  Level Estimated
Mon 03:32:00 PM 35.4804 126.7824 352° North  Level Estimated
Mon 03:33:00 PM 35.5979 126.7633 352° North  Level Estimated
Mon 03:33:55 PM 36.0450 126.9660 352° North 464 534 28,500  Level FlightAware ADS-B
Mon 03:34:00 PM 35.7154 126.7441 352° North  Level Estimated
Mon 03:34:12 PM 36.0760 126.9700 North 449 517 28,100  Level FlightAware ADS-B
Mon 03:35:00 PM 36.1780 126.9810 North 438 504 26,600 -1,660 Descending FlightAware ADS-B
Mon 03:35:46 PM 36.2710 126.9910 North 420 483 25,500 -1,412 Descending FlightAware ADS-B
Mon 03:36:25 PM 36.3480 127.0000 North 405 466 24,600 -1,378 Descending FlightAware ADS-B
Mon 03:37:00 PM 36.4140 127.0040 North 390 449 23,800 -1,313 Descending FlightAware ADS-B
Mon 03:38:01 PM 36.5230 126.9990 358° North 384 442 22,500 -1,267 Descending FlightAware ADS-B
Mon 03:38:30 PM 36.5770 126.9970 358° North 390 449 21,900 -1,281 Descending FlightAware ADS-B
Mon 03:39:30 PM 36.6860 126.9930 358° North 383 441 20,600 -1,275 Descending FlightAware ADS-B
Mon 03:39:50 PM 36.7170 126.9910 357° North 376 433 20,200 -348 Descending FlightAware ADS-B
Mon 03:40:39 PM 36.7890 126.9750 350° North 376 433 20,200  Level FlightAware ADS-B
Mon 03:41:14 PM 36.8400 126.9640 350° North 376 433 20,200  Level FlightAware ADS-B
Mon 03:41:50 PM 36.8920 126.9520 350° North 376 433 20,200  Level FlightAware ADS-B
Mon 03:43:03 PM 36.9980 126.9290 350° North 376 433 20,200  Level FlightAware ADS-B
Mon 03:43:39 PM 37.0510 126.9170 350° North 376 433 20,200 -4,324 Level FlightAware ADS-B
Mon 03:44:54 PM 37.0370 126.5390 267° West 354 407 12,200 -4,591 Descending FlightAware ADS-B
Mon 03:45:34 PM 37.0760 126.4770 308° West 354 407 11,400 -1,029 Descending FlightAware ADS-B
Mon 03:46:04 PM 37.1140 126.4390 321° Northwest 306 352 11,000 -636 Descending FlightAware ADS-B
Mon 03:46:40 PM 37.1510 126.3990 319° Northwest 283 326 10,700 -575 Descending FlightAware ADS-B
Mon 03:47:17 PM 37.1860 126.3620 320° Northwest 273 314 10,300 -423 Descending FlightAware ADS-B
Mon 03:47:51 PM 37.2150 126.3300 319° Northwest 271 312 10,200 -977 Descending FlightAware ADS-B
Mon 03:48:00 PM 37.2250 126.3210 324° Northwest 260 299 9,600 -621 Descending FlightAware ADS-B
Mon 03:48:49 PM 37.2630 126.2790 319° Northwest 260 299 9,600  Level FlightAware ADS-B
Mon 03:49:14 PM 37.2820 126.2580 319° Northwest 260 299 9,600 -2,941 Level FlightAware ADS-B
Mon 03:49:40 PM 37.3500 126.2640 North 288 331 7,100 -3,346 Descending FlightAware ADS-B
Mon 03:50:06 PM 37.3800 126.2520 342° North 275 316 6,700 -471 Descending FlightAware ADS-B
Mon 03:50:31 PM 37.4050 126.2410 341° North 275 316 6,700 -684 Level FlightAware ADS-B
Mon 03:51:25 PM 37.4630 126.2170 342° North 204 235 5,800 -667 Descending FlightAware ADS-B
Mon 03:51:52 PM 37.4830 126.2080 340° North 204 235 5,800 -800 Level FlightAware ADS-B
Mon 03:52:40 PM 37.5330 126.1900 344° North 191 220 4,800 -811 Descending FlightAware ADS-B
Mon 03:53:06 PM 37.5520 126.1890 358° North 191 220 4,800  Level FlightAware ADS-B
Mon 03:56:00 PM 37.4691 126.4505 112° Southeast  Level Estimated
Mon 03:57:00 PM 37.4691 126.4505 335° Northwest  Level Estimated
Mon 03:58:00 PM 37.4691 126.4505 335° Northwest  Level Estimated
Mon 03:59:00 PM 37.4691 126.4505 335° Northwest  Level Estimated
Mon 04:00:00 PM 37.4691 126.4505 335° Northwest  Level Estimated
Mon 04:01:00 PM 37.4691 126.4505 335° Northwest  Level Estimated
Mon 04:02:00 PM 37.4691 126.4505 335° Northwest  Level Estimated

Login

Don't have an account? Register now (free) for customized features, flight alerts, and more!